LIFSTR2 KGSO-KRDU
Flight info
| Callsign | LIFSTR2 |
|---|---|
| Flight time | 0h 29m |
| Altitude | 5000 |
| Route | DIRECT |
| Aircraft | H160/L-SDE2E3GHIJ1RWZ/S |
Departure
| Time | 2026-04-28 17:02 |
|---|---|
| Airport | Piedmont Triad International Airport (KGSO) |
Arrival
| Time | 2026-04-28 17:32 |
|---|---|
| Airport | Raleigh-Durham International Airport (KRDU) |
| Time | Latitude | Longitude | Altitude | Speed | Heading |
|---|---|---|---|---|---|
| 2026-04-28 16:48 | 36.09622 | -79.93310 | 901 ft | 0 kts | 310° |
| 2026-04-28 17:01 | 36.09622 | -79.93312 | 901 ft | 0 kts | 348° |
| 2026-04-28 17:01 | 36.09637 | -79.93295 | 1069 ft | 8 kts | 57° |
| 2026-04-28 17:01 | 36.09617 | -79.93205 | 1478 ft | 16 kts | 97° |
| 2026-04-28 17:01 | 36.09513 | -79.93040 | 1940 ft | 35 kts | 96° |
| 2026-04-28 17:02 | 36.09348 | -79.92725 | 2370 ft | 49 kts | 96° |
| 2026-04-28 17:02 | 36.09272 | -79.92437 | 2594 ft | 56 kts | 93° |
| 2026-04-28 17:02 | 36.09208 | -79.91742 | 2974 ft | 67 kts | 88° |
| 2026-04-28 17:02 | 36.09173 | -79.91350 | 3157 ft | 71 kts | 91° |
| 2026-04-28 17:03 | 36.08964 | -79.89683 | 3834 ft | 120 kts | 101° |
| 2026-04-28 17:03 | 36.08796 | -79.88599 | 4168 ft | 135 kts | 101° |
| 2026-04-28 17:03 | 36.08618 | -79.87421 | 4243 ft | 141 kts | 98° |
| 2026-04-28 17:04 | 36.08245 | -79.85009 | 4343 ft | 143 kts | 102° |
| 2026-04-28 17:04 | 36.08046 | -79.83805 | 4430 ft | 143 kts | 103° |
| 2026-04-28 17:05 | 36.07629 | -79.81419 | 4596 ft | 143 kts | 103° |
| 2026-04-28 17:05 | 36.07412 | -79.80220 | 4680 ft | 143 kts | 104° |
| 2026-04-28 17:05 | 36.07191 | -79.79022 | 4764 ft | 142 kts | 103° |
| 2026-04-28 17:06 | 36.06789 | -79.76708 | 4164 ft | 132 kts | 103° |
| 2026-04-28 17:06 | 36.06604 | -79.75625 | 3732 ft | 126 kts | 103° |
| 2026-04-28 17:06 | 36.06248 | -79.73598 | 2850 ft | 118 kts | 104° |
| 2026-04-28 17:07 | 36.06067 | -79.72613 | 2553 ft | 117 kts | 105° |
| 2026-04-28 17:07 | 36.05866 | -79.71621 | 2551 ft | 127 kts | 106° |
| 2026-04-28 17:07 | 36.05664 | -79.70659 | 2407 ft | 146 kts | 104° |
| 2026-04-28 17:07 | 36.05443 | -79.69571 | 2180 ft | 157 kts | 104° |
| 2026-04-28 17:08 | 36.05247 | -79.68415 | 2208 ft | 112 kts | 98° |
| 2026-04-28 17:08 | 36.05151 | -79.67579 | 2845 ft | 87 kts | 109° |
| 2026-04-28 17:08 | 36.05018 | -79.66920 | 3021 ft | 70 kts | 108° |
| 2026-04-28 17:08 | 36.04919 | -79.66410 | 2896 ft | 53 kts | 109° |
| 2026-04-28 17:09 | 36.04843 | -79.66026 | 2843 ft | 40 kts | 110° |
| 2026-04-28 17:09 | 36.04802 | -79.65731 | 2822 ft | 31 kts | 104° |
| 2026-04-28 17:09 | 36.04769 | -79.65495 | 2811 ft | 26 kts | 104° |
| 2026-04-28 17:09 | 36.04699 | -79.65149 | 2806 ft | 56 kts | 105° |
| 2026-04-28 17:10 | 36.04579 | -79.64589 | 2805 ft | 77 kts | 105° |
| 2026-04-28 17:10 | 36.04428 | -79.63881 | 2800 ft | 92 kts | 105° |
| 2026-04-28 17:10 | 36.04258 | -79.63074 | 2798 ft | 102 kts | 105° |
| 2026-04-28 17:10 | 36.04076 | -79.62199 | 2803 ft | 108 kts | 105° |
| 2026-04-28 17:11 | 36.03889 | -79.61281 | 2803 ft | 112 kts | 105° |
| 2026-04-28 17:11 | 36.03699 | -79.60338 | 2803 ft | 114 kts | 105° |
| 2026-04-28 17:11 | 36.03508 | -79.59379 | 2801 ft | 116 kts | 105° |
| 2026-04-28 17:11 | 36.03317 | -79.58407 | 2801 ft | 117 kts | 105° |
| 2026-04-28 17:12 | 36.03129 | -79.57445 | 2803 ft | 117 kts | 104° |
| 2026-04-28 17:12 | 36.02938 | -79.56467 | 2805 ft | 117 kts | 104° |
| 2026-04-28 17:12 | 36.02750 | -79.55491 | 2805 ft | 117 kts | 104° |
| 2026-04-28 17:12 | 36.02560 | -79.54513 | 2805 ft | 117 kts | 104° |
| 2026-04-28 17:13 | 36.02372 | -79.53536 | 2797 ft | 117 kts | 104° |
| 2026-04-28 17:13 | 36.02184 | -79.52559 | 2800 ft | 117 kts | 104° |
| 2026-04-28 17:13 | 36.01995 | -79.51582 | 2799 ft | 117 kts | 104° |
| 2026-04-28 17:13 | 36.01806 | -79.50604 | 2803 ft | 117 kts | 104° |
| 2026-04-28 17:14 | 36.01619 | -79.49629 | 2803 ft | 117 kts | 104° |
| 2026-04-28 17:14 | 36.01430 | -79.48654 | 2801 ft | 117 kts | 104° |
| 2026-04-28 17:14 | 36.01280 | -79.47680 | 2805 ft | 117 kts | 99° |
| 2026-04-28 17:14 | 36.01147 | -79.46689 | 2801 ft | 118 kts | 95° |
| 2026-04-28 17:15 | 36.01107 | -79.45677 | 2804 ft | 118 kts | 90° |
| 2026-04-28 17:15 | 36.01179 | -79.44664 | 2800 ft | 118 kts | 83° |
| 2026-04-28 17:15 | 36.01094 | -79.43663 | 2803 ft | 119 kts | 109° |
| 2026-04-28 17:15 | 36.00792 | -79.42718 | 2802 ft | 118 kts | 114° |
| 2026-04-28 17:16 | 36.00487 | -79.41779 | 2803 ft | 117 kts | 112° |
| 2026-04-28 17:16 | 36.00208 | -79.40835 | 2805 ft | 117 kts | 110° |
| 2026-04-28 17:16 | 35.99950 | -79.39878 | 2800 ft | 117 kts | 109° |
| 2026-04-28 17:16 | 35.99712 | -79.38929 | 2805 ft | 117 kts | 108° |
| 2026-04-28 17:17 | 35.99484 | -79.37966 | 2803 ft | 117 kts | 107° |
| 2026-04-28 17:17 | 35.99266 | -79.36996 | 2804 ft | 117 kts | 106° |
| 2026-04-28 17:17 | 35.99055 | -79.36027 | 2801 ft | 117 kts | 106° |
| 2026-04-28 17:17 | 35.98849 | -79.35055 | 2805 ft | 117 kts | 105° |
| 2026-04-28 17:18 | 35.98648 | -79.34084 | 2805 ft | 117 kts | 105° |
| 2026-04-28 17:18 | 35.98450 | -79.33111 | 2801 ft | 117 kts | 105° |
| 2026-04-28 17:18 | 35.98254 | -79.32140 | 2798 ft | 117 kts | 105° |
| 2026-04-28 17:18 | 35.98060 | -79.31170 | 2802 ft | 116 kts | 105° |
| 2026-04-28 17:19 | 35.97969 | -79.30175 | 2804 ft | 117 kts | 95° |
| 2026-04-28 17:19 | 35.97851 | -79.29195 | 2801 ft | 117 kts | 101° |
| 2026-04-28 17:19 | 35.97729 | -79.28205 | 2804 ft | 117 kts | 95° |
| 2026-04-28 17:19 | 35.97794 | -79.27205 | 2796 ft | 118 kts | 76° |
| 2026-04-28 17:20 | 35.97879 | -79.26204 | 2801 ft | 118 kts | 95° |
| 2026-04-28 17:20 | 35.97829 | -79.25536 | 2804 ft | 118 kts | 97° |
| 2026-04-28 17:20 | 35.97453 | -79.24294 | 2800 ft | 117 kts | 118° |
| 2026-04-28 17:20 | 35.97101 | -79.23393 | 2799 ft | 116 kts | 116° |
| 2026-04-28 17:21 | 35.96796 | -79.22468 | 2793 ft | 121 kts | 108° |
| 2026-04-28 17:21 | 35.96806 | -79.21372 | 2796 ft | 136 kts | 78° |
| 2026-04-28 17:21 | 35.96952 | -79.20190 | 2793 ft | 146 kts | 98° |
| 2026-04-28 17:22 | 35.96318 | -79.17744 | 2800 ft | 154 kts | 107° |
| 2026-04-28 17:22 | 35.96035 | -79.16469 | 2800 ft | 154 kts | 108° |
| 2026-04-28 17:22 | 35.95689 | -79.15209 | 2799 ft | 155 kts | 111° |
| 2026-04-28 17:23 | 35.94823 | -79.12788 | 2804 ft | 155 kts | 118° |
| 2026-04-28 17:23 | 35.94301 | -79.11622 | 2800 ft | 155 kts | 121° |
| 2026-04-28 17:23 | 35.93723 | -79.10493 | 2803 ft | 155 kts | 125° |
| 2026-04-28 17:23 | 35.93095 | -79.09408 | 2798 ft | 155 kts | 128° |
| 2026-04-28 17:24 | 35.92416 | -79.08370 | 2805 ft | 155 kts | 131° |
| 2026-04-28 17:24 | 35.91915 | -79.07204 | 2793 ft | 164 kts | 95° |
| 2026-04-28 17:24 | 35.91931 | -79.05815 | 2800 ft | 161 kts | 91° |
| 2026-04-28 17:24 | 35.91939 | -79.04438 | 2800 ft | 160 kts | 88° |
| 2026-04-28 17:25 | 35.92068 | -79.03072 | 2800 ft | 160 kts | 82° |
| 2026-04-28 17:25 | 35.92456 | -79.00389 | 2799 ft | 159 kts | 76° |
| 2026-04-28 17:25 | 35.92774 | -78.99085 | 2802 ft | 158 kts | 75° |
| 2026-04-28 17:26 | 35.92903 | -78.97754 | 2800 ft | 156 kts | 92° |
| 2026-04-28 17:26 | 35.92628 | -78.96467 | 2800 ft | 154 kts | 111° |
| 2026-04-28 17:26 | 35.92300 | -78.95278 | 2677 ft | 140 kts | 108° |
| 2026-04-28 17:26 | 35.92075 | -78.94193 | 2817 ft | 121 kts | 107° |
| 2026-04-28 17:27 | 35.91864 | -78.93250 | 3109 ft | 108 kts | 110° |
| 2026-04-28 17:27 | 35.91626 | -78.92400 | 3427 ft | 102 kts | 114° |
| 2026-04-28 17:27 | 35.91350 | -78.91616 | 3681 ft | 97 kts | 116° |
| 2026-04-28 17:27 | 35.91076 | -78.90885 | 3503 ft | 90 kts | 116° |
| 2026-04-28 17:28 | 35.90984 | -78.90152 | 3201 ft | 85 kts | 92° |
| 2026-04-28 17:28 | 35.91027 | -78.88791 | 2340 ft | 76 kts | 87° |
| 2026-04-28 17:28 | 35.91066 | -78.88114 | 1885 ft | 85 kts | 92° |
| 2026-04-28 17:29 | 35.90988 | -78.87345 | 1773 ft | 95 kts | 102° |
| 2026-04-28 17:29 | 35.90817 | -78.86509 | 1816 ft | 105 kts | 107° |
| 2026-04-28 17:29 | 35.90565 | -78.85632 | 1833 ft | 112 kts | 112° |
| 2026-04-28 17:30 | 35.89860 | -78.83867 | 1847 ft | 117 kts | 120° |
| 2026-04-28 17:30 | 35.89020 | -78.82167 | 1393 ft | 113 kts | 123° |
| 2026-04-28 17:30 | 35.88607 | -78.81359 | 1187 ft | 110 kts | 124° |
| 2026-04-28 17:31 | 35.88184 | -78.80572 | 1037 ft | 110 kts | 125° |
| 2026-04-28 17:31 | 35.87377 | -78.78975 | 810 ft | 109 kts | 122° |
| 2026-04-28 17:32 | 35.86864 | -78.77739 | 1001 ft | 39 kts | 134° |
| 2026-04-28 17:32 | 35.86787 | -78.77474 | 656 ft | 21 kts | 218° |
| 2026-04-28 17:32 | 35.86740 | -78.77411 | 448 ft | 3 kts | 314° |
| 2026-04-28 17:32 | 35.86731 | -78.77539 | 491 ft | 24 kts | 272° |
| 2026-04-28 17:33 | 35.86733 | -78.77620 | 420 ft | 0 kts | 280° |
| 2026-04-28 17:33 | 35.86732 | -78.77620 | 420 ft | 0 kts | 311° |
| 2026-04-28 17:41 | 35.86731 | -78.77620 | 420 ft | 0 kts | 329° |
| 2026-04-28 17:43 | 35.86736 | -78.77622 | 420 ft | 6 kts | 0° |
| 2026-04-28 17:44 | 35.86792 | -78.77658 | 452 ft | 12 kts | 323° |
| 2026-04-28 17:44 | 35.86867 | -78.77737 | 455 ft | 16 kts | 322° |
| 2026-04-28 17:44 | 35.86976 | -78.77804 | 464 ft | 20 kts | 323° |
| 2026-04-28 17:44 | 35.87123 | -78.77867 | 489 ft | 25 kts | 325° |
| 2026-04-28 17:45 | 35.87306 | -78.77933 | 463 ft | 29 kts | 326° |
| 2026-04-28 17:45 | 35.87513 | -78.78006 | 474 ft | 33 kts | 330° |
| 2026-04-28 17:45 | 35.87747 | -78.78072 | 494 ft | 36 kts | 341° |
| 2026-04-28 17:45 | 35.87923 | -78.78242 | 496 ft | 33 kts | 273° |
| 2026-04-28 17:46 | 35.87935 | -78.78500 | 492 ft | 21 kts | 279° |
| 2026-04-28 17:46 | 35.87994 | -78.78620 | 426 ft | 0 kts | 285° |